createdAt,value
2022-11-05T00:00:11.347Z,2
2022-11-05T00:01:54.734Z,1
2022-11-05T00:03:38.145Z,2
2022-11-05T00:08:47.356Z,2
2022-11-05T00:10:30.844Z,2
2022-11-05T00:12:14.172Z,2
2022-11-05T00:13:57.558Z,2
2022-11-05T00:15:40.951Z,2
2022-11-05T00:17:24.414Z,2
2022-11-05T00:19:07.740Z,2
2022-11-05T00:20:51.141Z,2
2022-11-05T00:24:17.624Z,2
2022-11-05T00:26:01.014Z,2
2022-11-05T00:27:44.431Z,2
2022-11-05T00:29:27.815Z,2
2022-11-05T00:31:11.211Z,1
2022-11-05T00:32:54.608Z,2
2022-11-05T00:34:37.997Z,2
2022-11-05T00:36:21.413Z,1
2022-11-05T00:41:30.627Z,2
2022-11-05T00:43:14.044Z,2
2022-11-05T00:44:57.434Z,2
2022-11-05T00:46:40.825Z,2
2022-11-05T00:48:24.257Z,2
2022-11-05T00:50:07.628Z,2
2022-11-05T00:51:51.021Z,2
2022-11-05T00:53:34.433Z,2
2022-11-05T00:57:00.922Z,2
2022-11-05T00:58:44.326Z,2
2022-11-05T01:00:27.776Z,2
2022-11-05T01:02:11.133Z,2
2022-11-05T01:03:54.480Z,2
2022-11-05T01:05:37.877Z,1
2022-11-05T01:07:21.311Z,2
2022-11-05T01:09:04.665Z,2
2022-11-05T01:10:48.369Z,2
2022-11-05T01:12:31.759Z,2
2022-11-05T01:14:15.176Z,2
2022-11-05T01:15:58.575Z,2
2022-11-05T01:17:41.948Z,2
2022-11-05T01:19:25.341Z,2
2022-11-05T01:21:08.735Z,1
2022-11-05T01:22:52.167Z,2
2022-11-05T01:28:01.388Z,2
2022-11-05T01:29:44.786Z,2
2022-11-05T01:31:28.193Z,1
2022-11-05T01:33:11.660Z,2
2022-11-05T01:34:54.980Z,2
2022-11-05T01:36:38.357Z,2
2022-11-05T01:38:21.757Z,2
2022-11-05T01:40:05.160Z,2
2022-11-05T01:43:31.665Z,2
2022-11-05T01:45:15.062Z,1
2022-11-05T01:46:58.439Z,1
2022-11-05T01:48:41.823Z,2
2022-11-05T01:50:25.214Z,2
2022-11-05T01:52:08.611Z,3
2022-11-05T01:53:52.037Z,1
2022-11-05T01:55:35.402Z,2
2022-11-05T01:59:01.881Z,2
2022-11-05T02:00:45.282Z,2
2022-11-05T02:02:28.673Z,2
2022-11-05T02:04:12.088Z,2
2022-11-05T02:05:55.465Z,2
2022-11-05T02:07:38.860Z,1
2022-11-05T02:09:22.287Z,1
2022-11-05T02:11:05.648Z,1
2022-11-05T02:14:32.122Z,2
2022-11-05T02:16:15.519Z,2
2022-11-05T02:17:58.927Z,2
2022-11-05T02:19:42.315Z,2
2022-11-05T02:21:25.727Z,1
2022-11-05T02:23:09.123Z,1
2022-11-05T02:24:52.532Z,2
2022-11-05T02:26:35.951Z,1
2022-11-05T02:30:02.378Z,1
2022-11-05T02:31:45.788Z,2
2022-11-05T02:33:29.185Z,1
2022-11-05T02:35:12.594Z,1
2022-11-05T02:36:55.989Z,1
2022-11-05T02:38:39.455Z,2
2022-11-05T02:40:22.800Z,1
2022-11-05T02:42:06.170Z,2
2022-11-05T02:47:15.405Z,2
2022-11-05T02:48:58.842Z,1
2022-11-05T02:50:42.194Z,1
2022-11-05T02:52:25.596Z,1
2022-11-05T02:54:08.981Z,2
2022-11-05T02:55:52.412Z,2
2022-11-05T02:57:35.798Z,2
2022-11-05T02:59:19.194Z,2
2022-11-05T03:02:45.650Z,2
2022-11-05T03:04:29.053Z,2
2022-11-05T03:06:12.441Z,1
2022-11-05T03:07:55.856Z,1
2022-11-05T03:09:39.238Z,2
2022-11-05T03:11:22.624Z,1
2022-11-05T03:13:06.013Z,1
2022-11-05T03:14:49.420Z,2
2022-11-05T03:18:15.901Z,1
2022-11-05T03:19:59.291Z,2
2022-11-05T03:21:42.688Z,2
2022-11-05T03:23:26.080Z,1
2022-11-05T03:25:09.477Z,2
2022-11-05T03:26:52.869Z,2
2022-11-05T03:28:36.264Z,2
2022-11-05T03:30:19.663Z,2
2022-11-05T03:33:46.135Z,2
2022-11-05T03:35:29.539Z,2
2022-11-05T03:37:12.929Z,2
2022-11-05T03:38:56.329Z,2
2022-11-05T03:40:39.729Z,2
2022-11-05T03:42:23.131Z,2
2022-11-05T03:44:06.526Z,2
2022-11-05T03:45:49.935Z,2
2022-11-05T03:50:59.159Z,2
2022-11-05T03:52:42.553Z,2
2022-11-05T03:54:25.952Z,1
2022-11-05T03:56:09.343Z,2
2022-11-05T03:57:52.750Z,2
2022-11-05T03:59:36.152Z,1
2022-11-05T04:01:19.530Z,2
2022-11-05T04:03:02.943Z,1
2022-11-05T04:08:12.181Z,2
2022-11-05T04:09:55.580Z,1
2022-11-05T04:11:38.984Z,2
2022-11-05T04:13:22.382Z,2
2022-11-05T04:15:05.764Z,1
2022-11-05T04:16:49.179Z,2
2022-11-05T04:18:32.577Z,2
2022-11-05T04:20:15.988Z,2
2022-11-05T04:25:25.206Z,2
2022-11-05T04:27:08.663Z,2
2022-11-05T04:28:52.008Z,2
2022-11-05T04:30:35.424Z,2
2022-11-05T04:32:18.796Z,2
2022-11-05T04:34:02.786Z,2
2022-11-05T04:35:45.577Z,2
2022-11-05T04:37:28.976Z,2
2022-11-05T04:39:12.378Z,2
2022-11-05T04:40:56.087Z,2
2022-11-05T04:42:39.511Z,2
2022-11-05T04:44:22.904Z,2
2022-11-05T04:46:06.266Z,2
2022-11-05T04:47:49.655Z,1
2022-11-05T04:49:33.073Z,2
2022-11-05T04:51:16.577Z,1
2022-11-05T04:52:59.866Z,2
2022-11-05T04:54:43.256Z,2
2022-11-05T04:58:09.721Z,2
2022-11-05T04:59:53.120Z,1
2022-11-05T05:01:36.514Z,2
2022-11-05T05:03:19.943Z,2
2022-11-05T05:05:03.322Z,2
2022-11-05T05:06:46.697Z,2
2022-11-05T05:08:30.100Z,2
2022-11-05T05:10:13.503Z,2
2022-11-05T05:11:56.891Z,2
2022-11-05T05:13:40.611Z,2
2022-11-05T05:15:24.001Z,2
2022-11-05T05:17:07.419Z,1
2022-11-05T05:18:50.809Z,1
2022-11-05T05:20:34.212Z,2
2022-11-05T05:22:17.612Z,2
2022-11-05T05:24:00.995Z,2
2022-11-05T05:25:44.376Z,1
2022-11-05T05:27:27.766Z,2
2022-11-05T05:29:11.495Z,1
2022-11-05T05:32:38.277Z,2
2022-11-05T05:34:21.660Z,1
2022-11-05T05:36:05.061Z,2
2022-11-05T05:37:48.470Z,1
2022-11-05T05:39:31.869Z,2
2022-11-05T05:41:15.251Z,2
2022-11-05T05:42:58.649Z,2
2022-11-05T05:44:42.360Z,1
2022-11-05T05:46:25.762Z,1
2022-11-05T05:48:09.173Z,1
2022-11-05T05:49:52.583Z,2
2022-11-05T05:51:35.952Z,2
2022-11-05T05:53:19.340Z,2
2022-11-05T05:55:02.745Z,2
2022-11-05T05:56:46.145Z,2
2022-11-05T05:58:29.536Z,2
2022-11-05T06:00:13.239Z,1
2022-11-05T06:01:56.634Z,2
2022-11-05T06:03:40.066Z,2
2022-11-05T06:05:23.443Z,2
2022-11-05T06:07:06.821Z,2
2022-11-05T06:08:50.215Z,1
2022-11-05T06:10:33.691Z,2
2022-11-05T06:12:17.030Z,1
2022-11-05T06:17:26.350Z,2
2022-11-05T06:19:09.656Z,2
2022-11-05T06:20:53.053Z,2
2022-11-05T06:22:36.459Z,2
2022-11-05T06:24:19.897Z,2
2022-11-05T06:26:03.275Z,1
2022-11-05T06:27:46.653Z,2
2022-11-05T06:29:30.058Z,2
2022-11-05T06:31:13.437Z,2
2022-11-05T06:32:57.214Z,2
2022-11-05T06:34:40.523Z,2
2022-11-05T06:36:23.958Z,2
2022-11-05T06:38:07.383Z,2
2022-11-05T06:39:50.768Z,2
2022-11-05T06:41:34.115Z,2
2022-11-05T06:43:17.518Z,2
2022-11-05T06:45:00.979Z,2
2022-11-05T06:50:10.171Z,1
2022-11-05T06:51:53.611Z,1
2022-11-05T06:53:36.963Z,2
2022-11-05T06:55:20.364Z,2
2022-11-05T06:57:03.763Z,2
2022-11-05T06:58:47.141Z,2
2022-11-05T07:00:30.540Z,2
2022-11-05T07:02:13.954Z,2
2022-11-05T07:07:23.188Z,2
2022-11-05T07:09:06.605Z,2
2022-11-05T07:10:49.978Z,3
2022-11-05T07:12:33.435Z,3
2022-11-05T07:14:16.812Z,3
2022-11-05T07:16:00.176Z,3
2022-11-05T07:17:43.574Z,4
2022-11-05T07:19:26.961Z,4
2022-11-05T07:21:10.367Z,5
2022-11-05T07:22:54.054Z,4
2022-11-05T07:24:37.452Z,4
2022-11-05T07:26:20.852Z,5
2022-11-05T07:28:04.280Z,5
2022-11-05T07:29:47.652Z,7
2022-11-05T07:31:31.055Z,8
2022-11-05T07:33:14.475Z,10
2022-11-05T07:34:57.835Z,13
2022-11-05T07:36:41.297Z,46
2022-11-05T07:38:24.979Z,55
2022-11-05T07:40:08.334Z,60
2022-11-05T07:41:51.851Z,46
2022-11-05T07:43:35.231Z,51
2022-11-05T07:45:18.518Z,55
2022-11-05T07:47:01.914Z,56
2022-11-05T07:48:45.323Z,48
2022-11-05T07:50:28.698Z,42
2022-11-05T07:52:12.149Z,40
2022-11-05T07:53:55.881Z,37
2022-11-05T07:55:39.222Z,37
2022-11-05T07:57:22.616Z,36
2022-11-05T07:59:06.052Z,32
2022-11-05T08:00:49.449Z,30
2022-11-05T08:02:32.841Z,28
2022-11-05T08:04:16.295Z,27
2022-11-05T08:05:59.580Z,31
2022-11-05T08:07:42.996Z,34
2022-11-05T08:11:09.479Z,35
2022-11-05T08:12:52.838Z,37
2022-11-05T08:14:36.269Z,40
2022-11-05T08:16:19.659Z,41
2022-11-05T08:18:03.036Z,42
2022-11-05T08:19:46.424Z,42
2022-11-05T08:21:29.866Z,43
2022-11-05T08:23:13.219Z,42
2022-11-05T08:24:56.632Z,40
2022-11-05T08:30:05.861Z,29
2022-11-05T08:31:49.260Z,26
2022-11-05T08:33:32.697Z,26
2022-11-05T08:35:16.063Z,28
2022-11-05T08:36:59.460Z,29
2022-11-05T08:38:42.929Z,25
2022-11-05T08:40:26.237Z,23
2022-11-05T08:42:09.630Z,27
2022-11-05T08:43:53.043Z,31
2022-11-05T08:47:19.491Z,33
2022-11-05T08:49:02.946Z,29
2022-11-05T08:50:46.322Z,31
2022-11-05T08:52:29.696Z,30
2022-11-05T08:54:13.117Z,41
2022-11-05T08:55:56.534Z,39
2022-11-05T08:57:39.872Z,95
2022-11-05T08:59:23.267Z,152
2022-11-05T09:01:06.680Z,92
2022-11-05T09:04:33.188Z,105
2022-11-05T09:06:16.631Z,84
2022-11-05T09:07:59.960Z,87
2022-11-05T09:09:43.336Z,107
2022-11-05T09:11:26.738Z,86
2022-11-05T09:13:10.123Z,77
2022-11-05T09:14:53.531Z,65
2022-11-05T09:16:36.932Z,92
2022-11-05T09:18:20.319Z,100
2022-11-05T09:20:04.023Z,103
2022-11-05T09:21:47.413Z,112
2022-11-05T09:23:30.813Z,114
2022-11-05T09:25:14.224Z,106
2022-11-05T09:26:57.671Z,85
2022-11-05T09:28:40.993Z,62
2022-11-05T09:30:24.427Z,60
2022-11-05T09:32:07.794Z,66
2022-11-05T09:33:51.197Z,70
2022-11-05T09:37:17.653Z,112
2022-11-05T09:39:01.078Z,134
2022-11-05T09:40:44.443Z,144
2022-11-05T09:42:27.920Z,160
2022-11-05T09:44:11.278Z,155
2022-11-05T09:45:54.651Z,157
2022-11-05T09:47:38.065Z,169
2022-11-05T09:49:21.495Z,175
2022-11-05T09:51:04.832Z,174
2022-11-05T09:52:48.543Z,166
2022-11-05T09:54:31.937Z,155
2022-11-05T09:56:15.333Z,143
2022-11-05T09:57:58.762Z,141
2022-11-05T09:59:42.116Z,143
2022-11-05T10:01:25.517Z,140
2022-11-05T10:03:08.902Z,135
2022-11-05T10:04:52.335Z,139
2022-11-05T10:06:35.699Z,138
2022-11-05T10:10:02.164Z,187
2022-11-05T10:11:45.575Z,218
2022-11-05T10:13:28.966Z,239
2022-11-05T10:15:12.370Z,252
2022-11-05T10:16:55.751Z,243
2022-11-05T10:18:39.155Z,220
2022-11-05T10:20:22.553Z,219
2022-11-05T10:22:06.016Z,225
2022-11-05T10:27:15.201Z,254
2022-11-05T10:28:58.688Z,260
2022-11-05T10:30:41.979Z,264
2022-11-05T10:32:25.386Z,258
2022-11-05T10:34:08.794Z,250
2022-11-05T10:35:52.178Z,244
2022-11-05T10:37:35.591Z,231
2022-11-05T10:39:18.953Z,222
2022-11-05T10:44:28.191Z,210
2022-11-05T10:46:11.599Z,197
2022-11-05T10:47:54.991Z,168
2022-11-05T10:49:38.412Z,139
2022-11-05T10:51:21.786Z,120
2022-11-05T10:53:05.181Z,116
2022-11-05T10:54:48.581Z,125
2022-11-05T10:56:31.985Z,136
2022-11-05T11:01:41.222Z,219
2022-11-05T11:03:24.614Z,241
2022-11-05T11:05:07.999Z,301
2022-11-05T11:06:51.413Z,348
2022-11-05T11:08:34.794Z,333
2022-11-05T11:10:18.218Z,267
2022-11-05T11:12:01.625Z,211
2022-11-05T11:13:44.999Z,216
2022-11-05T11:15:28.440Z,228
2022-11-05T11:18:54.859Z,282
2022-11-05T11:20:38.292Z,297
2022-11-05T11:22:21.694Z,324
2022-11-05T11:24:05.074Z,378
2022-11-05T11:25:48.452Z,459
2022-11-05T11:27:31.887Z,546
2022-11-05T11:29:15.289Z,596
2022-11-05T11:30:58.630Z,569
2022-11-05T11:36:07.865Z,402
2022-11-05T11:37:51.259Z,378
2022-11-05T11:39:34.668Z,356
2022-11-05T11:41:18.107Z,301
2022-11-05T11:43:01.475Z,224
2022-11-05T11:44:44.845Z,172
2022-11-05T11:46:28.275Z,169
2022-11-05T11:48:11.677Z,204
2022-11-05T11:51:38.180Z,350
2022-11-05T11:53:21.510Z,453
2022-11-05T11:55:04.955Z,549
2022-11-05T11:56:48.338Z,584
2022-11-05T11:58:31.707Z,641
2022-11-05T12:00:15.096Z,607
2022-11-05T12:01:58.490Z,570
2022-11-05T12:03:41.893Z,509
2022-11-05T12:08:51.205Z,358
2022-11-05T12:10:34.524Z,369
2022-11-05T12:12:17.915Z,398
2022-11-05T12:15:44.706Z,449
2022-11-05T12:17:28.134Z,477
2022-11-05T12:19:11.526Z,499
2022-11-05T12:20:54.898Z,487
2022-11-05T12:26:04.133Z,507
2022-11-05T12:27:47.535Z,484
2022-11-05T12:29:30.926Z,468
2022-11-05T12:31:14.344Z,518
2022-11-05T12:32:57.729Z,614
2022-11-05T12:34:41.125Z,576
2022-11-05T12:36:24.533Z,583
2022-11-05T12:38:07.930Z,539
2022-11-05T12:43:17.151Z,535
2022-11-05T12:45:00.555Z,561
2022-11-05T12:46:43.989Z,517
2022-11-05T12:48:27.364Z,476
2022-11-05T12:50:10.731Z,410
2022-11-05T12:51:54.143Z,327
2022-11-05T12:53:37.554Z,331
2022-11-05T12:55:20.968Z,339
2022-11-05T12:57:04.324Z,340
2022-11-05T12:58:48.104Z,341
2022-11-05T13:00:31.433Z,360
2022-11-05T13:02:14.851Z,377
2022-11-05T13:03:58.224Z,384
2022-11-05T13:05:41.615Z,389
2022-11-05T13:07:25.021Z,388
2022-11-05T13:09:08.418Z,391
2022-11-05T13:10:51.814Z,402
2022-11-05T13:16:01.069Z,392
2022-11-05T13:17:44.435Z,380
2022-11-05T13:19:27.839Z,369
2022-11-05T13:21:11.257Z,362
2022-11-05T13:22:54.640Z,348
2022-11-05T13:24:38.036Z,332
2022-11-05T13:26:21.468Z,330
2022-11-05T13:28:04.856Z,337
2022-11-05T13:31:31.289Z,350
2022-11-05T13:33:14.728Z,357
2022-11-05T13:34:58.095Z,343
2022-11-05T13:36:41.477Z,338
2022-11-05T13:38:24.914Z,330
2022-11-05T13:40:08.282Z,336
2022-11-05T13:41:51.663Z,318
2022-11-05T13:43:35.123Z,301
2022-11-05T13:48:44.326Z,275
2022-11-05T13:50:27.782Z,263
2022-11-05T13:52:11.109Z,254
2022-11-05T13:53:54.553Z,238
2022-11-05T13:55:37.949Z,223
2022-11-05T13:57:21.299Z,210
2022-11-05T13:59:04.760Z,201
2022-11-05T14:00:48.128Z,198
2022-11-05T14:04:14.558Z,186
2022-11-05T14:05:57.973Z,174
2022-11-05T14:07:41.357Z,166
2022-11-05T14:09:24.750Z,162
2022-11-05T14:11:08.148Z,159
2022-11-05T14:12:51.549Z,153
2022-11-05T14:14:34.944Z,145
2022-11-05T14:16:18.337Z,138
2022-11-05T14:19:44.815Z,129
2022-11-05T14:21:28.201Z,117
2022-11-05T14:23:11.599Z,102
2022-11-05T14:24:55.037Z,109
2022-11-05T14:26:38.412Z,106
2022-11-05T14:28:21.780Z,102
2022-11-05T14:30:05.223Z,95
2022-11-05T14:31:48.586Z,84
2022-11-05T14:36:57.835Z,74
2022-11-05T14:38:41.226Z,65
2022-11-05T14:40:24.608Z,59
2022-11-05T14:42:08.060Z,57
2022-11-05T14:43:51.433Z,51
2022-11-05T14:45:34.808Z,47
2022-11-05T14:47:18.218Z,37
2022-11-05T14:49:01.651Z,30
2022-11-05T14:54:10.831Z,29
2022-11-05T14:55:54.246Z,27
2022-11-05T14:57:37.644Z,22
2022-11-05T14:59:21.027Z,19
2022-11-05T15:01:04.477Z,17
2022-11-05T15:02:47.817Z,17
2022-11-05T15:04:31.255Z,16
2022-11-05T15:06:14.608Z,14
2022-11-05T15:07:58.061Z,12
2022-11-05T15:11:24.483Z,11
2022-11-05T15:13:07.888Z,12
2022-11-05T15:14:51.326Z,11
2022-11-05T15:16:34.668Z,11
2022-11-05T15:18:18.095Z,11
2022-11-05T15:20:01.474Z,11
2022-11-05T15:21:44.866Z,10
2022-11-05T15:23:28.255Z,11
2022-11-05T15:26:54.743Z,400
2022-11-05T15:28:38.145Z,403
2022-11-05T15:30:21.554Z,410
2022-11-05T15:32:04.960Z,411
2022-11-05T15:33:48.352Z,417
2022-11-05T15:35:31.710Z,411
2022-11-05T15:37:15.107Z,412
2022-11-05T15:38:58.530Z,412
2022-11-05T15:42:24.993Z,420
2022-11-05T15:44:08.393Z,417
2022-11-05T15:45:51.789Z,408
2022-11-05T15:47:35.181Z,388
2022-11-05T15:49:18.577Z,426
2022-11-05T15:51:02.007Z,429
2022-11-05T15:52:45.379Z,428
2022-11-05T15:54:28.756Z,429
2022-11-05T15:59:38.017Z,425
2022-11-05T16:01:21.387Z,433
2022-11-05T16:03:04.832Z,453
2022-11-05T16:04:48.192Z,460
2022-11-05T16:06:31.583Z,461
2022-11-05T16:08:15.025Z,293
2022-11-05T16:09:58.408Z,258
2022-11-05T16:11:41.781Z,293
2022-11-05T16:15:08.253Z,243
2022-11-05T16:16:51.658Z,240
2022-11-05T16:18:35.027Z,238
2022-11-05T16:20:18.482Z,238
2022-11-05T16:22:01.846Z,238
2022-11-05T16:23:45.235Z,238
2022-11-05T16:25:28.634Z,235
2022-11-05T16:27:12.020Z,238
2022-11-05T16:30:38.509Z,235
2022-11-05T16:32:21.907Z,235
2022-11-05T16:34:05.290Z,259
2022-11-05T16:35:48.678Z,260
2022-11-05T16:37:32.072Z,259
2022-11-05T16:39:15.487Z,256
2022-11-05T16:40:58.905Z,9
2022-11-05T16:42:42.267Z,8
2022-11-05T16:47:51.530Z,9
2022-11-05T16:49:34.911Z,9
2022-11-05T16:51:18.335Z,9
2022-11-05T16:53:01.726Z,9
2022-11-05T16:54:45.110Z,9
2022-11-05T16:56:28.522Z,9
2022-11-05T16:58:11.932Z,9
2022-11-05T16:59:55.303Z,9
2022-11-05T17:05:04.589Z,9
2022-11-05T17:06:47.931Z,9
2022-11-05T17:08:31.341Z,8
2022-11-05T17:10:14.759Z,9
2022-11-05T17:11:58.134Z,8
2022-11-05T17:13:41.523Z,9
2022-11-05T17:15:24.929Z,9
2022-11-05T17:17:08.300Z,9
2022-11-05T17:22:17.595Z,8
2022-11-05T17:24:00.950Z,9
2022-11-05T17:25:44.353Z,9
2022-11-05T17:27:27.741Z,9
2022-11-05T17:29:11.154Z,9
2022-11-05T17:30:54.579Z,8
2022-11-05T17:32:37.920Z,9
2022-11-05T17:34:21.338Z,9
2022-11-05T17:37:47.791Z,9
2022-11-05T17:39:31.216Z,9
2022-11-05T17:41:14.631Z,9
2022-11-05T17:42:58.009Z,9
2022-11-05T17:44:41.382Z,9
2022-11-05T17:46:24.822Z,9
2022-11-05T17:48:08.181Z,9
2022-11-05T17:49:51.558Z,9
2022-11-05T17:51:34.950Z,9
2022-11-05T17:53:18.671Z,10
2022-11-05T17:55:02.065Z,9
2022-11-05T17:56:45.482Z,9
2022-11-05T17:58:28.861Z,9
2022-11-05T18:00:12.276Z,9
2022-11-05T18:01:55.712Z,9
2022-11-05T18:03:39.131Z,9
2022-11-05T18:05:22.511Z,9
2022-11-05T18:10:31.719Z,9
2022-11-05T18:12:15.072Z,9
2022-11-05T18:13:58.508Z,9
2022-11-05T18:15:41.873Z,9
2022-11-05T18:17:25.290Z,10
2022-11-05T18:19:08.697Z,9
2022-11-05T18:20:52.137Z,9
2022-11-05T18:22:35.517Z,10
2022-11-05T18:26:02.041Z,9
2022-11-05T18:27:45.375Z,9
2022-11-05T18:29:28.788Z,9
2022-11-05T18:31:12.155Z,9
2022-11-05T18:32:55.536Z,9
2022-11-05T18:34:38.919Z,9
2022-11-05T18:36:22.431Z,9
2022-11-05T18:38:05.705Z,9
2022-11-05T18:41:32.203Z,9
2022-11-05T18:43:15.678Z,10
2022-11-05T18:44:58.960Z,9
2022-11-05T18:46:42.371Z,9
2022-11-05T18:48:25.791Z,9
2022-11-05T18:50:09.269Z,9
2022-11-05T18:51:52.565Z,8
2022-11-05T18:53:35.989Z,10
2022-11-05T18:57:02.420Z,10
2022-11-05T18:58:45.820Z,9
2022-11-05T19:00:29.293Z,9
2022-11-05T19:02:12.655Z,9
2022-11-05T19:03:56.037Z,8
2022-11-05T19:05:39.441Z,9
2022-11-05T19:07:22.798Z,7
2022-11-05T19:09:06.203Z,9
2022-11-05T19:12:32.696Z,8
2022-11-05T19:14:16.090Z,9
2022-11-05T19:15:59.499Z,8
2022-11-05T19:17:42.855Z,6
2022-11-05T19:19:26.261Z,9
2022-11-05T19:21:09.661Z,9
2022-11-05T19:22:53.059Z,228
2022-11-05T19:24:36.496Z,260
2022-11-05T19:28:03.005Z,261
2022-11-05T19:29:46.376Z,261
2022-11-05T19:31:29.781Z,262
2022-11-05T19:33:13.205Z,261
2022-11-05T19:34:56.526Z,262
2022-11-05T19:36:39.962Z,263
2022-11-05T19:38:23.328Z,262
2022-11-05T19:40:06.787Z,262
2022-11-05T19:43:33.177Z,263
2022-11-05T19:45:16.554Z,262
2022-11-05T19:46:59.943Z,264
2022-11-05T19:48:43.438Z,263
2022-11-05T19:50:26.829Z,262
2022-11-05T19:52:10.192Z,263
2022-11-05T19:53:53.541Z,263
2022-11-05T19:55:36.933Z,263
2022-11-05T19:59:03.401Z,263
2022-11-05T20:00:46.848Z,261
2022-11-05T20:02:30.256Z,260
2022-11-05T20:04:13.626Z,261
2022-11-05T20:05:57.030Z,261
2022-11-05T20:07:40.444Z,261
2022-11-05T20:09:23.865Z,261
2022-11-05T20:11:07.257Z,262
2022-11-05T20:12:50.649Z,262
2022-11-05T20:14:34.331Z,262
2022-11-05T20:16:17.681Z,262
2022-11-05T20:18:01.086Z,263
2022-11-05T20:19:44.481Z,262
2022-11-05T20:21:27.873Z,262
2022-11-05T20:23:11.245Z,261
2022-11-05T20:24:54.744Z,263
2022-11-05T20:26:38.058Z,263
2022-11-05T20:31:47.334Z,264
2022-11-05T20:33:30.680Z,263
2022-11-05T20:35:14.082Z,266
2022-11-05T20:36:57.523Z,263
2022-11-05T20:38:40.883Z,264
2022-11-05T20:40:24.284Z,264
2022-11-05T20:42:07.657Z,264
2022-11-05T20:43:51.098Z,264
2022-11-05T20:49:00.321Z,256
2022-11-05T20:50:43.737Z,254
2022-11-05T20:52:27.146Z,254
2022-11-05T20:54:10.483Z,254
2022-11-05T20:55:53.883Z,253
2022-11-05T20:57:37.324Z,254
2022-11-05T20:59:20.723Z,213
2022-11-05T21:01:04.199Z,8
2022-11-05T21:02:47.511Z,9
2022-11-05T21:07:57.340Z,9
2022-11-05T21:09:40.750Z,8
2022-11-05T21:11:24.209Z,8
2022-11-05T21:13:07.577Z,9
2022-11-05T21:14:50.951Z,9
2022-11-05T21:16:34.386Z,9
2022-11-05T21:18:17.805Z,8
2022-11-05T21:23:27.005Z,9
2022-11-05T21:25:10.372Z,8
2022-11-05T21:26:53.774Z,9
2022-11-05T21:28:37.167Z,8
2022-11-05T21:30:20.570Z,8
2022-11-05T21:32:03.969Z,8
2022-11-05T21:33:47.405Z,9
2022-11-05T21:35:30.803Z,8
2022-11-05T21:40:39.977Z,9
2022-11-05T21:42:23.377Z,8
2022-11-05T21:44:06.874Z,8
2022-11-05T21:45:50.162Z,8
2022-11-05T21:47:33.561Z,9
2022-11-05T21:49:16.979Z,9
2022-11-05T21:51:00.369Z,8
2022-11-05T21:52:43.781Z,9
2022-11-05T21:57:53.005Z,9
2022-11-05T21:59:36.450Z,9
2022-11-05T22:01:19.861Z,9
2022-11-05T22:03:03.195Z,9
2022-11-05T22:04:46.598Z,9
2022-11-05T22:06:29.995Z,8
2022-11-05T22:08:13.421Z,8
2022-11-05T22:09:56.779Z,9
2022-11-05T22:15:06.051Z,8
2022-11-05T22:16:49.421Z,9
2022-11-05T22:18:32.796Z,9
2022-11-05T22:20:16.247Z,8
2022-11-05T22:21:59.613Z,9
2022-11-05T22:23:42.983Z,9
2022-11-05T22:25:26.398Z,9
2022-11-05T22:27:09.776Z,8
2022-11-05T22:32:19.011Z,8
2022-11-05T22:34:02.463Z,8
2022-11-05T22:35:45.835Z,9
2022-11-05T22:37:29.242Z,10
2022-11-05T22:39:12.669Z,9
2022-11-05T22:40:56.018Z,9
2022-11-05T22:42:39.383Z,8
2022-11-05T22:44:22.832Z,10
2022-11-05T22:46:06.226Z,9
2022-11-05T22:47:49.923Z,9
2022-11-05T22:49:33.311Z,9
2022-11-05T22:51:16.705Z,8
2022-11-05T22:53:00.138Z,9
2022-11-05T22:54:43.502Z,9
2022-11-05T22:56:26.863Z,9
2022-11-05T22:58:10.273Z,7
2022-11-05T22:59:53.684Z,7
2022-11-05T23:01:37.060Z,9
2022-11-05T23:03:20.795Z,9
2022-11-05T23:05:04.212Z,9
2022-11-05T23:06:47.615Z,8
2022-11-05T23:08:30.953Z,8
2022-11-05T23:10:14.342Z,9
2022-11-05T23:11:57.761Z,8
2022-11-05T23:13:41.129Z,9
2022-11-05T23:15:24.532Z,9
2022-11-05T23:17:07.937Z,9
2022-11-05T23:20:34.455Z,9
2022-11-05T23:22:17.835Z,9
2022-11-05T23:24:01.206Z,8
2022-11-05T23:25:44.602Z,9
2022-11-05T23:27:27.972Z,9
2022-11-05T23:29:11.381Z,8
2022-11-05T23:30:54.777Z,9
2022-11-05T23:32:38.178Z,8
2022-11-05T23:34:21.569Z,9
2022-11-05T23:37:48.041Z,8
2022-11-05T23:39:31.471Z,9
2022-11-05T23:41:14.859Z,8
2022-11-05T23:42:58.263Z,2
2022-11-05T23:44:41.682Z,2
2022-11-05T23:46:25.022Z,2
2022-11-05T23:48:08.439Z,1
2022-11-05T23:49:51.829Z,2
2022-11-05T23:51:35.203Z,2
2022-11-05T23:55:01.700Z,1
2022-11-05T23:56:45.112Z,2
2022-11-05T23:58:28.519Z,2
